sensor_id;sensor_type;location;lat;lon;timestamp;temperature;humidity
23803;DHT22;12082;51.786;6.018;2023-09-19T00:41:41;14.20;99.90
23803;DHT22;12082;51.786;6.018;2023-09-19T00:44:12;14.30;99.90
23803;DHT22;12082;51.786;6.018;2023-09-19T00:49:07;14.20;99.90
23803;DHT22;12082;51.786;6.018;2023-09-19T06:45:29;13.90;99.90
23803;DHT22;12082;51.786;6.018;2023-09-19T06:47:57;14.10;99.90
23803;DHT22;12082;51.786;6.018;2023-09-19T06:53:00;14.10;99.90
23803;DHT22;12082;51.786;6.018;2023-09-19T07:15:41;14.70;99.90
23803;DHT22;12082;51.786;6.018;2023-09-19T07:28:18;15.30;99.90
23803;DHT22;12082;51.786;6.018;2023-09-19T07:30:46;15.20;99.90
23803;DHT22;12082;51.786;6.018;2023-09-19T07:33:14;15.10;99.90
23803;DHT22;12082;51.786;6.018;2023-09-19T07:48:07;15.60;99.90
23803;DHT22;12082;51.786;6.018;2023-09-19T08:00:43;16.40;99.90
23803;DHT22;12082;51.786;6.018;2023-09-19T08:30:19;16.30;99.90
23803;DHT22;12082;51.786;6.018;2023-09-19T08:32:45;16.70;99.90
23803;DHT22;12082;51.786;6.018;2023-09-19T09:17:36;17.10;99.90
23803;DHT22;12082;51.786;6.018;2023-09-19T09:22:33;17.10;99.90
23803;DHT22;12082;51.786;6.018;2023-09-19T09:32:30;16.80;99.90
23803;DHT22;12082;51.786;6.018;2023-09-19T09:53:29;17.10;99.90
23803;DHT22;12082;51.786;6.018;2023-09-19T11:06:16;18.80;99.90
23803;DHT22;12082;51.786;6.018;2023-09-19T20:10:38;18.00;99.90
23803;DHT22;12082;51.786;6.018;2023-09-19T20:13:07;18.10;99.90
23803;DHT22;12082;51.786;6.018;2023-09-19T20:15:34;18.40;99.90
23803;DHT22;12082;51.786;6.018;2023-09-19T20:18:03;18.00;99.90
23803;DHT22;12082;51.786;6.018;2023-09-19T20:20:29;18.10;99.90
23803;DHT22;12082;51.786;6.018;2023-09-19T20:22:55;18.20;99.90
23803;DHT22;12082;51.786;6.018;2023-09-19T20:25:21;17.90;99.90
23803;DHT22;12082;51.786;6.018;2023-09-19T20:27:48;18.20;99.90
23803;DHT22;12082;51.786;6.018;2023-09-19T20:30:14;18.10;99.90
23803;DHT22;12082;51.786;6.018;2023-09-19T20:32:40;18.00;99.90
23803;DHT22;12082;51.786;6.018;2023-09-19T20:35:10;18.10;99.90
23803;DHT22;12082;51.786;6.018;2023-09-19T20:37:39;18.00;99.90
23803;DHT22;12082;51.786;6.018;2023-09-19T20:40:05;17.80;99.90
23803;DHT22;12082;51.786;6.018;2023-09-19T20:42:38;17.80;99.90
23803;DHT22;12082;51.786;6.018;2023-09-19T20:45:08;18.10;99.90
23803;DHT22;12082;51.786;6.018;2023-09-19T20:47:40;17.80;99.90
23803;DHT22;12082;51.786;6.018;2023-09-19T20:50:06;18.10;99.90
23803;DHT22;12082;51.786;6.018;2023-09-19T20:52:32;17.80;99.90
23803;DHT22;12082;51.786;6.018;2023-09-19T20:54:58;18.00;99.90
23803;DHT22;12082;51.786;6.018;2023-09-19T20:57:23;17.80;99.90
23803;DHT22;12082;51.786;6.018;2023-09-19T20:59:49;18.10;99.90
23803;DHT22;12082;51.786;6.018;2023-09-19T21:02:15;18.00;99.90
23803;DHT22;12082;51.786;6.018;2023-09-19T21:04:41;17.90;99.90
23803;DHT22;12082;51.786;6.018;2023-09-19T21:07:07;17.50;99.90
23803;DHT22;12082;51.786;6.018;2023-09-19T21:09:32;18.00;99.90
23803;DHT22;12082;51.786;6.018;2023-09-19T21:12:00;18.10;99.90
23803;DHT22;12082;51.786;6.018;2023-09-19T21:14:26;18.00;99.90
23803;DHT22;12082;51.786;6.018;2023-09-19T21:16:53;18.20;99.90
23803;DHT22;12082;51.786;6.018;2023-09-19T21:19:18;18.20;99.90
23803;DHT22;12082;51.786;6.018;2023-09-19T21:21:44;18.00;99.90
23803;DHT22;12082;51.786;6.018;2023-09-19T21:24:14;18.20;99.90
23803;DHT22;12082;51.786;6.018;2023-09-19T21:26:44;17.90;99.90
23803;DHT22;12082;51.786;6.018;2023-09-19T21:29:13;18.00;99.90
23803;DHT22;12082;51.786;6.018;2023-09-19T21:31:40;17.90;99.90
23803;DHT22;12082;51.786;6.018;2023-09-19T21:34:10;18.00;99.90
23803;DHT22;12082;51.786;6.018;2023-09-19T21:36:36;18.00;99.90
23803;DHT22;12082;51.786;6.018;2023-09-19T21:39:03;18.00;99.90
23803;DHT22;12082;51.786;6.018;2023-09-19T21:41:30;17.80;99.90
23803;DHT22;12082;51.786;6.018;2023-09-19T21:46:22;18.00;99.90
23803;DHT22;12082;51.786;6.018;2023-09-19T21:48:51;18.40;99.90
23803;DHT22;12082;51.786;6.018;2023-09-19T21:51:20;18.30;99.90
23803;DHT22;12082;51.786;6.018;2023-09-19T21:53:45;18.20;99.90
23803;DHT22;12082;51.786;6.018;2023-09-19T21:56:11;18.20;99.90
23803;DHT22;12082;51.786;6.018;2023-09-19T21:58:37;18.40;99.90
23803;DHT22;12082;51.786;6.018;2023-09-19T22:01:04;18.40;99.90
23803;DHT22;12082;51.786;6.018;2023-09-19T22:03:37;18.30;99.90
23803;DHT22;12082;51.786;6.018;2023-09-19T22:06:05;18.30;99.90
23803;DHT22;12082;51.786;6.018;2023-09-19T22:08:31;18.00;99.90
23803;DHT22;12082;51.786;6.018;2023-09-19T22:10:58;17.80;99.90
23803;DHT22;12082;51.786;6.018;2023-09-19T22:13:25;17.80;99.90
23803;DHT22;12082;51.786;6.018;2023-09-19T22:15:58;18.10;99.90
23803;DHT22;12082;51.786;6.018;2023-09-19T22:20:52;18.00;99.90
23803;DHT22;12082;51.786;6.018;2023-09-19T22:25:51;17.90;99.90
23803;DHT22;12082;51.786;6.018;2023-09-19T22:28:18;18.20;99.90
23803;DHT22;12082;51.786;6.018;2023-09-19T22:30:43;17.90;99.90
23803;DHT22;12082;51.786;6.018;2023-09-19T22:33:12;18.00;99.90
23803;DHT22;12082;51.786;6.018;2023-09-19T22:35:44;18.00;99.90
23803;DHT22;12082;51.786;6.018;2023-09-19T22:38:15;18.20;99.90
23803;DHT22;12082;51.786;6.018;2023-09-19T22:40:41;17.80;99.90
23803;DHT22;12082;51.786;6.018;2023-09-19T22:43:11;17.90;99.90
23803;DHT22;12082;51.786;6.018;2023-09-19T22:45:41;18.00;99.90
23803;DHT22;12082;51.786;6.018;2023-09-19T22:48:07;18.10;99.90
23803;DHT22;12082;51.786;6.018;2023-09-19T22:50:37;18.00;99.90
23803;DHT22;12082;51.786;6.018;2023-09-19T22:53:11;17.90;99.90
23803;DHT22;12082;51.786;6.018;2023-09-19T22:55:42;18.00;99.90
23803;DHT22;12082;51.786;6.018;2023-09-19T22:58:12;17.90;99.90
23803;DHT22;12082;51.786;6.018;2023-09-19T23:00:39;17.60;99.90
23803;DHT22;12082;51.786;6.018;2023-09-19T23:03:07;17.80;99.90
23803;DHT22;12082;51.786;6.018;2023-09-19T23:05:38;17.70;99.90
23803;DHT22;12082;51.786;6.018;2023-09-19T23:08:10;17.80;99.90
23803;DHT22;12082;51.786;6.018;2023-09-19T23:10:46;17.20;99.90
23803;DHT22;12082;51.786;6.018;2023-09-19T23:13:17;17.20;99.90
23803;DHT22;12082;51.786;6.018;2023-09-19T23:15:56;17.20;99.90
23803;DHT22;12082;51.786;6.018;2023-09-19T23:18:26;17.30;99.90
23803;DHT22;12082;51.786;6.018;2023-09-19T23:20:53;17.40;99.90
23803;DHT22;12082;51.786;6.018;2023-09-19T23:23:47;17.50;99.90
23803;DHT22;12082;51.786;6.018;2023-09-19T23:26:12;17.40;99.90
23803;DHT22;12082;51.786;6.018;2023-09-19T23:28:38;17.40;99.90
23803;DHT22;12082;51.786;6.018;2023-09-19T23:31:13;17.60;99.90
23803;DHT22;12082;51.786;6.018;2023-09-19T23:33:40;17.50;99.90
23803;DHT22;12082;51.786;6.018;2023-09-19T23:36:06;17.40;99.90
23803;DHT22;12082;51.786;6.018;2023-09-19T23:38:34;17.20;99.90
23803;DHT22;12082;51.786;6.018;2023-09-19T23:41:00;17.10;99.90
23803;DHT22;12082;51.786;6.018;2023-09-19T23:43:26;17.20;99.90
23803;DHT22;12082;51.786;6.018;2023-09-19T23:46:00;17.00;99.90
23803;DHT22;12082;51.786;6.018;2023-09-19T23:48:33;17.00;99.90
23803;DHT22;12082;51.786;6.018;2023-09-19T23:50:59;17.10;99.90
23803;DHT22;12082;51.786;6.018;2023-09-19T23:53:32;17.00;99.90
23803;DHT22;12082;51.786;6.018;2023-09-19T23:55:59;17.00;99.90
23803;DHT22;12082;51.786;6.018;2023-09-19T23:58:25;17.50;99.90
